Terminal Aerodrome Forecast
Issued by NWS

Home | Current Version | Previous Version | Text Only | Print | Product List | Glossary On
Versions: 1 2 3 4 5 6 7 8 9 10 11 12 13 14 15 16
000
FTUS44 KSJT 182300
TAFJCT
TAF
KJCT 182320Z 1900/1924 04010G18KT P6SM VCTS BKN050CB
     FM190300 12008KT P6SM BKN050 BKN200
      TEMPO 1911/1915 BKN020
     FM191500 17010KT P6SM SCT070=

USA.gov is the U.S. government's official web portal to all federal, state and local government web resources and services.